createdAt,value
2023-01-21T00:01:58.276Z,101557.91
2023-01-21T00:04:24.968Z,101552.53
2023-01-21T00:06:51.657Z,101548.44
2023-01-21T00:09:18.255Z,101539.34
2023-01-21T00:11:45.040Z,101543.19
2023-01-21T00:14:11.930Z,101540.78
2023-01-21T00:16:38.556Z,101542.91
2023-01-21T00:19:05.177Z,101541.22
2023-01-21T00:21:31.881Z,101537.38
2023-01-21T00:23:58.497Z,101530.22
2023-01-21T00:26:25.142Z,101535.25
2023-01-21T00:28:52.109Z,101538.31
2023-01-21T00:31:18.997Z,101533.31
2023-01-21T00:33:45.710Z,101529.97
2023-01-21T00:36:13.183Z,101534.00
2023-01-21T00:38:40.338Z,101531.09
2023-01-21T00:41:08.712Z,101536.97
2023-01-21T00:43:35.733Z,101527.75
2023-01-21T00:46:02.518Z,101529.91
2023-01-21T00:48:29.213Z,101530.63
2023-01-21T00:50:59.012Z,101533.38
2023-01-21T00:53:25.760Z,101542.13
2023-01-21T00:55:52.375Z,101545.84
2023-01-21T00:58:19.376Z,101544.28
2023-01-21T01:00:46.061Z,101542.81
2023-01-21T01:03:12.790Z,101537.78
2023-01-21T01:05:39.340Z,101540.78
2023-01-21T01:08:06.019Z,101538.88
2023-01-21T01:10:32.605Z,101540.44
2023-01-21T01:13:00.669Z,101538.16
2023-01-21T01:15:27.303Z,101544.34
2023-01-21T01:17:53.945Z,101535.66
2023-01-21T01:20:20.559Z,101536.81
2023-01-21T01:22:47.185Z,101532.84
2023-01-21T01:25:13.844Z,101546.50
2023-01-21T01:27:40.492Z,101555.09
2023-01-21T01:30:07.621Z,101552.19
2023-01-21T01:32:34.500Z,101560.25
2023-01-21T01:35:01.096Z,101555.97
2023-01-21T01:37:27.699Z,101563.16
2023-01-21T01:39:54.408Z,101564.50
2023-01-21T01:42:21.224Z,101564.34
2023-01-21T01:44:57.204Z,101565.59
2023-01-21T01:47:27.976Z,101564.06
2023-01-21T01:49:54.719Z,101557.00
2023-01-21T01:52:21.809Z,101558.72
2023-01-21T01:54:49.728Z,101563.44
2023-01-21T01:57:18.776Z,101563.06
2023-01-21T01:59:45.498Z,101565.69
2023-01-21T02:02:14.381Z,101560.69
2023-01-21T02:04:53.109Z,101564.09
2023-01-21T02:07:21.062Z,101559.53
2023-01-21T02:09:47.943Z,101551.19
2023-01-21T02:12:15.372Z,101560.41
2023-01-21T02:14:44.732Z,101557.50
2023-01-21T02:17:18.596Z,101550.44
2023-01-21T02:19:48.399Z,101558.25
2023-01-21T02:22:30.934Z,101559.44
2023-01-21T02:25:16.356Z,101545.28
2023-01-21T02:27:43.244Z,101562.81
2023-01-21T02:30:09.827Z,101550.50
2023-01-21T02:32:55.249Z,101550.72
2023-01-21T02:35:30.387Z,101554.59
2023-01-21T02:38:15.095Z,101552.91
2023-01-21T02:40:59.793Z,101561.88
2023-01-21T02:43:38.325Z,101555.41
2023-01-21T02:46:12.976Z,101556.59
2023-01-21T02:48:47.945Z,101549.78
2023-01-21T02:51:14.661Z,101555.03
2023-01-21T02:53:41.290Z,101548.09
2023-01-21T02:56:15.978Z,101543.84
2023-01-21T02:58:45.782Z,101550.13
2023-01-21T03:01:18.254Z,101543.94
2023-01-21T03:03:54.013Z,101544.75
2023-01-21T03:06:56.090Z,101545.66
2023-01-21T03:09:26.898Z,101539.16
2023-01-21T03:12:02.420Z,101530.34
2023-01-21T03:14:51.127Z,101530.50
2023-01-21T03:17:26.724Z,101529.88
2023-01-21T03:20:19.573Z,101527.63
2023-01-21T03:22:47.770Z,101533.16
2023-01-21T03:25:15.952Z,101543.28
2023-01-21T03:27:44.911Z,101547.16
2023-01-21T03:30:18.653Z,101547.28
2023-01-21T03:32:48.323Z,101547.81
2023-01-21T03:35:23.942Z,101550.34
2023-01-21T03:37:55.464Z,101560.00
2023-01-21T03:40:22.199Z,101547.16
2023-01-21T03:42:56.320Z,101557.69
2023-01-21T03:45:46.682Z,101558.34
2023-01-21T03:48:28.531Z,101547.81
2023-01-21T03:51:05.311Z,101557.16
2023-01-21T03:53:32.132Z,101548.56
2023-01-21T03:56:00.037Z,101548.63
2023-01-21T03:58:27.539Z,101553.16
2023-01-21T04:00:54.228Z,101551.09
2023-01-21T04:03:21.108Z,101549.78
2023-01-21T04:05:47.765Z,101549.88
2023-01-21T04:08:14.496Z,101563.13
2023-01-21T04:10:41.157Z,101545.06
2023-01-21T04:13:07.889Z,101547.81
2023-01-21T04:15:34.534Z,101542.03
2023-01-21T04:18:01.164Z,101536.13
2023-01-21T04:20:27.876Z,101534.25
2023-01-21T04:22:54.607Z,101544.53
2023-01-21T04:25:21.237Z,101534.03
2023-01-21T04:27:47.930Z,101544.00
2023-01-21T04:30:14.843Z,101550.81
2023-01-21T04:32:42.389Z,101539.63
2023-01-21T04:35:09.367Z,101542.22
2023-01-21T04:37:35.973Z,101546.63
2023-01-21T04:40:02.602Z,101541.69
2023-01-21T04:42:31.966Z,101538.56
2023-01-21T04:44:58.548Z,101523.66
2023-01-21T04:47:25.256Z,101535.31
2023-01-21T04:49:52.813Z,101531.59
2023-01-21T04:52:19.462Z,101535.22
2023-01-21T04:54:46.059Z,101540.03
2023-01-21T04:57:12.757Z,101532.25
2023-01-21T04:59:39.341Z,101540.66
2023-01-21T05:02:06.081Z,101530.44
2023-01-21T05:04:33.018Z,101526.34
2023-01-21T05:07:00.044Z,101530.59
2023-01-21T05:09:27.263Z,101520.84
2023-01-21T05:11:53.961Z,101518.94
2023-01-21T05:14:20.667Z,101520.28
2023-01-21T05:16:47.398Z,101520.69
2023-01-21T05:19:14.219Z,101514.59
2023-01-21T05:21:41.049Z,101512.50
2023-01-21T05:24:07.676Z,101517.97
2023-01-21T05:26:34.284Z,101514.56
2023-01-21T05:29:00.865Z,101512.34
2023-01-21T05:31:27.653Z,101507.50
2023-01-21T05:33:54.412Z,101514.88
2023-01-21T05:36:21.027Z,101504.84
2023-01-21T05:38:47.637Z,101508.63
2023-01-21T05:41:14.331Z,101492.97
2023-01-21T05:43:40.954Z,101500.22
2023-01-21T05:46:07.843Z,101498.38
2023-01-21T05:48:34.539Z,101490.97
2023-01-21T05:51:01.213Z,101510.47
2023-01-21T05:53:27.838Z,101496.56
2023-01-21T05:55:54.787Z,101495.53
2023-01-21T05:58:23.964Z,101497.13
2023-01-21T06:00:51.006Z,101495.53
2023-01-21T06:03:18.224Z,101503.59
2023-01-21T06:05:45.638Z,101518.41
2023-01-21T06:08:13.312Z,101521.56
2023-01-21T06:10:40.002Z,101517.25
2023-01-21T06:13:06.670Z,101523.56
2023-01-21T06:15:33.744Z,101529.19
2023-01-21T06:18:01.256Z,101523.19
2023-01-21T06:20:30.513Z,101529.69
2023-01-21T06:22:58.390Z,101525.78
2023-01-21T06:25:26.133Z,101528.00
2023-01-21T06:27:56.081Z,101519.78
2023-01-21T06:30:23.560Z,101522.06
2023-01-21T06:32:50.293Z,101525.44
2023-01-21T06:35:17.137Z,101521.25
2023-01-21T06:37:46.577Z,101514.19
2023-01-21T06:40:13.941Z,101513.47
2023-01-21T06:42:40.556Z,101519.03
2023-01-21T06:45:07.620Z,101524.22
2023-01-21T06:47:35.312Z,101521.28
2023-01-21T06:50:01.945Z,101525.47
2023-01-21T06:52:28.635Z,101530.94
2023-01-21T06:54:55.372Z,101518.78
2023-01-21T06:57:22.067Z,101536.88
2023-01-21T06:59:48.671Z,101521.25
2023-01-21T07:02:15.354Z,101532.91
2023-01-21T07:04:42.005Z,101533.84
2023-01-21T07:07:08.652Z,101520.19
2023-01-21T07:09:35.377Z,101540.88
2023-01-21T07:12:01.945Z,101520.78
2023-01-21T07:14:28.610Z,101508.84
2023-01-21T07:16:55.334Z,101516.63
2023-01-21T07:19:22.025Z,101516.41
2023-01-21T07:21:48.652Z,101521.66
2023-01-21T07:24:15.229Z,101510.44
2023-01-21T07:26:41.970Z,101506.63
2023-01-21T07:29:09.254Z,101516.22
2023-01-21T07:31:36.132Z,101519.06
2023-01-21T07:34:03.425Z,101507.72
2023-01-21T07:36:30.111Z,101509.09
2023-01-21T07:38:56.779Z,101507.16
2023-01-21T07:41:23.878Z,101515.44
2023-01-21T07:43:51.171Z,101513.03
2023-01-21T07:46:18.947Z,101502.06
2023-01-21T07:48:47.633Z,101499.81
2023-01-21T07:51:14.361Z,101493.63
2023-01-21T07:53:41.046Z,101500.41
2023-01-21T07:56:08.236Z,101498.28
2023-01-21T07:58:35.403Z,101496.78
2023-01-21T08:01:05.814Z,101499.94
2023-01-21T08:03:32.408Z,101505.78
2023-01-21T08:05:59.048Z,101497.66
2023-01-21T08:08:25.748Z,101482.25
2023-01-21T08:10:53.029Z,101480.75
2023-01-21T08:13:19.787Z,101483.16
2023-01-21T08:15:50.178Z,101480.16
2023-01-21T08:18:17.088Z,101476.88
2023-01-21T08:20:43.827Z,101486.63
2023-01-21T08:23:10.588Z,101481.94
2023-01-21T08:25:37.444Z,101473.69
2023-01-21T08:28:04.080Z,101470.81
2023-01-21T08:30:30.783Z,101474.41
2023-01-21T08:32:57.860Z,101473.91
2023-01-21T08:35:24.488Z,101482.31
2023-01-21T08:37:51.266Z,101477.59
2023-01-21T08:40:17.984Z,101484.03
2023-01-21T08:42:44.592Z,101482.38
2023-01-21T08:45:11.804Z,101477.53
2023-01-21T08:47:39.002Z,101475.28
2023-01-21T08:50:07.662Z,101482.50
2023-01-21T08:52:34.359Z,101483.13
2023-01-21T08:55:00.996Z,101491.97
2023-01-21T08:57:27.826Z,101490.28
2023-01-21T08:59:54.477Z,101494.72
2023-01-21T09:02:21.306Z,101495.41
2023-01-21T09:04:47.965Z,101494.03
2023-01-21T09:07:14.892Z,101495.78
2023-01-21T09:09:41.631Z,101500.84
2023-01-21T09:12:08.433Z,101495.19
2023-01-21T09:14:35.123Z,101495.75
2023-01-21T09:17:01.806Z,101493.44
2023-01-21T09:19:28.957Z,101490.94
2023-01-21T09:21:56.013Z,101499.03
2023-01-21T09:24:23.621Z,101479.69
2023-01-21T09:26:50.287Z,101485.81
2023-01-21T09:29:16.942Z,101492.06
2023-01-21T09:31:43.714Z,101473.53
2023-01-21T09:34:11.779Z,101484.81
2023-01-21T09:36:38.479Z,101489.28
2023-01-21T09:39:05.835Z,101483.94
2023-01-21T09:41:46.028Z,101476.38
2023-01-21T09:44:21.581Z,101476.91
2023-01-21T09:46:51.391Z,101462.84
2023-01-21T09:49:44.017Z,101472.25
2023-01-21T09:52:22.486Z,101463.25
2023-01-21T09:54:49.161Z,101461.13
2023-01-21T09:57:18.968Z,101464.06
2023-01-21T09:59:51.836Z,101447.09
2023-01-21T10:02:44.973Z,101462.41
2023-01-21T10:05:26.390Z,101459.81
2023-01-21T10:07:53.006Z,101473.25
2023-01-21T10:10:45.689Z,101481.88
2023-01-21T10:13:27.455Z,101463.22
2023-01-21T10:16:00.395Z,101477.31
2023-01-21T10:18:30.777Z,101467.94
2023-01-21T10:21:04.970Z,101490.06
2023-01-21T10:23:59.426Z,101497.41
2023-01-21T10:26:27.352Z,101498.72
2023-01-21T10:28:55.045Z,101495.19
2023-01-21T10:31:26.178Z,101491.09
2023-01-21T10:33:53.491Z,101496.00
2023-01-21T10:36:29.092Z,101488.44
2023-01-21T10:39:01.844Z,101484.44
2023-01-21T10:41:40.388Z,101492.88
2023-01-21T10:44:06.980Z,101495.53
2023-01-21T10:46:46.536Z,101492.84
2023-01-21T10:49:39.508Z,101493.06
2023-01-21T10:52:16.119Z,101489.75
2023-01-21T10:54:42.747Z,101494.06
2023-01-21T10:57:41.487Z,101494.59
2023-01-21T11:00:17.791Z,101504.78
2023-01-21T11:02:50.374Z,101499.22
2023-01-21T11:05:18.069Z,101493.38
2023-01-21T11:07:46.383Z,101496.81
2023-01-21T11:10:23.647Z,101489.91
2023-01-21T11:12:50.619Z,101487.47
2023-01-21T11:15:19.386Z,101478.56
2023-01-21T11:17:47.675Z,101487.00
2023-01-21T11:20:29.487Z,101489.75
2023-01-21T11:22:56.242Z,101479.19
2023-01-21T11:25:27.657Z,101468.03
2023-01-21T11:27:54.415Z,101467.50
2023-01-21T11:30:48.336Z,101467.28
2023-01-21T11:33:22.100Z,101463.03
2023-01-21T11:35:49.102Z,101454.66
2023-01-21T11:38:41.961Z,101450.09
2023-01-21T11:41:11.752Z,101442.75
2023-01-21T11:43:44.607Z,101439.88
2023-01-21T11:46:20.093Z,101437.97
2023-01-21T11:48:46.724Z,101441.75
2023-01-21T11:51:13.534Z,101427.59
2023-01-21T11:53:41.305Z,101431.84
2023-01-21T11:56:08.046Z,101423.31
2023-01-21T11:58:41.109Z,101409.28
2023-01-21T12:01:10.825Z,101416.59
2023-01-21T12:03:42.715Z,101415.66
2023-01-21T12:06:09.933Z,101394.31
2023-01-21T12:08:38.670Z,101401.91
2023-01-21T12:11:06.598Z,101391.81
2023-01-21T12:13:50.814Z,101390.44
2023-01-21T12:16:26.765Z,101390.50
2023-01-21T12:19:16.315Z,101387.50
2023-01-21T12:21:42.983Z,101383.94
2023-01-21T12:24:28.630Z,101375.19
2023-01-21T12:27:18.296Z,101375.84
2023-01-21T12:29:57.368Z,101370.88
2023-01-21T12:32:44.320Z,101369.63
2023-01-21T12:35:13.957Z,101362.50
2023-01-21T12:37:49.390Z,101355.97
2023-01-21T12:40:22.043Z,101351.81
2023-01-21T12:42:51.762Z,101362.56
2023-01-21T12:45:25.333Z,101353.25
2023-01-21T12:47:57.917Z,101343.69
2023-01-21T12:50:29.519Z,101331.75
2023-01-21T12:53:05.827Z,101330.91
2023-01-21T12:55:41.629Z,101314.75
2023-01-21T12:58:16.011Z,101320.41
2023-01-21T13:00:46.166Z,101297.97
2023-01-21T13:03:12.899Z,101298.97
2023-01-21T13:05:39.504Z,101297.25
2023-01-21T13:08:25.065Z,101282.94
2023-01-21T13:10:55.966Z,101293.59
2023-01-21T13:13:28.833Z,101292.09
2023-01-21T13:15:58.877Z,101285.00
2023-01-21T13:18:31.463Z,101281.56
2023-01-21T13:21:08.732Z,101286.59
2023-01-21T13:23:35.498Z,101293.72
2023-01-21T13:26:22.424Z,101271.75
2023-01-21T13:28:58.668Z,101265.22
2023-01-21T13:31:36.510Z,101262.66
2023-01-21T13:34:16.401Z,101264.84
2023-01-21T13:36:49.281Z,101263.16
2023-01-21T13:39:31.206Z,101264.69
2023-01-21T13:42:09.044Z,101264.44
2023-01-21T13:44:41.960Z,101265.22
2023-01-21T13:47:11.716Z,101265.84
2023-01-21T13:49:47.765Z,101257.81
2023-01-21T13:52:21.517Z,101252.63
2023-01-21T13:54:51.167Z,101257.44
2023-01-21T13:57:30.924Z,101260.25
2023-01-21T14:00:00.186Z,101246.75
2023-01-21T14:02:50.090Z,101258.94
2023-01-21T14:05:19.770Z,101250.16
2023-01-21T14:07:57.493Z,101260.59
2023-01-21T14:10:31.781Z,101244.97
2023-01-21T14:13:18.671Z,101245.47
2023-01-21T14:15:57.599Z,101248.38
2023-01-21T14:18:43.166Z,101246.41
2023-01-21T14:21:44.974Z,101245.72
2023-01-21T14:24:17.614Z,101255.72
2023-01-21T14:26:47.230Z,101252.66
2023-01-21T14:29:32.339Z,101247.75
2023-01-21T14:32:20.121Z,101245.75
2023-01-21T14:34:59.017Z,101266.97
2023-01-21T14:37:43.864Z,101260.47
2023-01-21T14:40:24.051Z,101244.66
2023-01-21T14:42:51.559Z,101239.66
2023-01-21T14:45:23.512Z,101251.34
2023-01-21T14:47:54.265Z,101240.69
2023-01-21T14:50:39.664Z,101236.22
2023-01-21T14:53:10.559Z,101248.00
2023-01-21T14:55:37.236Z,101244.19
2023-01-21T14:58:04.182Z,101245.88
2023-01-21T15:00:35.079Z,101256.19
2023-01-21T15:03:14.258Z,101263.19
2023-01-21T15:05:41.709Z,101252.22
2023-01-21T15:08:14.547Z,101256.53
2023-01-21T15:10:41.434Z,101266.03
2023-01-21T15:13:25.896Z,101267.84
2023-01-21T15:16:07.840Z,101265.69
2023-01-21T15:18:36.405Z,101253.56
2023-01-21T15:21:22.996Z,101265.69
2023-01-21T15:23:50.260Z,101268.72
2023-01-21T15:26:29.537Z,101268.03
2023-01-21T15:28:56.576Z,101262.69
2023-01-21T15:31:25.889Z,101272.53
2023-01-21T15:33:55.491Z,101276.69
2023-01-21T15:36:27.152Z,101271.72
2023-01-21T15:38:56.768Z,101273.16
2023-01-21T15:41:29.263Z,101277.50
2023-01-21T15:44:04.242Z,101271.38
2023-01-21T15:46:36.229Z,101261.38
2023-01-21T15:49:09.038Z,101271.38
2023-01-21T15:51:44.741Z,101280.84
2023-01-21T15:54:17.244Z,101273.34
2023-01-21T15:56:49.776Z,101278.84
2023-01-21T15:59:35.218Z,101279.19
2023-01-21T16:02:22.212Z,101281.66
2023-01-21T16:04:58.621Z,101275.50
2023-01-21T16:07:43.937Z,101267.88
2023-01-21T16:10:29.216Z,101287.31
2023-01-21T16:13:25.168Z,101283.66
2023-01-21T16:16:09.673Z,101286.44
2023-01-21T16:18:39.340Z,101284.13
2023-01-21T16:21:06.047Z,101294.91
2023-01-21T16:23:36.384Z,101282.34
2023-01-21T16:26:03.633Z,101293.97
2023-01-21T16:28:42.837Z,101304.06
2023-01-21T16:31:09.730Z,101305.84
2023-01-21T16:33:36.474Z,101309.84
2023-01-21T16:36:07.572Z,101319.78
2023-01-21T16:38:35.130Z,101319.00
2023-01-21T16:41:07.593Z,101323.94
2023-01-21T16:43:38.345Z,101331.19
2023-01-21T16:46:06.103Z,101322.50
2023-01-21T16:48:33.407Z,101327.06
2023-01-21T16:51:01.180Z,101318.28
2023-01-21T16:53:27.905Z,101328.59
2023-01-21T16:55:55.884Z,101324.38
2023-01-21T16:58:30.326Z,101320.00
2023-01-21T17:00:59.118Z,101331.50
2023-01-21T17:03:25.833Z,101324.06
2023-01-21T17:05:54.701Z,101329.38
2023-01-21T17:08:22.897Z,101329.53
2023-01-21T17:10:56.244Z,101337.41
2023-01-21T17:13:23.068Z,101341.97
2023-01-21T17:15:57.393Z,101339.63
2023-01-21T17:18:24.096Z,101340.44
2023-01-21T17:20:59.561Z,101345.38
2023-01-21T17:23:27.398Z,101343.69
2023-01-21T17:25:56.946Z,101340.72
2023-01-21T17:28:29.330Z,101344.44
2023-01-21T17:31:19.626Z,101350.13
2023-01-21T17:34:00.502Z,101347.97
2023-01-21T17:36:31.717Z,101352.72
2023-01-21T17:38:58.432Z,101352.19
2023-01-21T17:41:26.170Z,101356.81
2023-01-21T17:43:53.898Z,101365.84
2023-01-21T17:46:23.082Z,101359.59
2023-01-21T17:48:51.617Z,101361.13
2023-01-21T17:51:20.800Z,101360.03
2023-01-21T17:53:56.466Z,101352.78
2023-01-21T17:56:35.151Z,101355.13
2023-01-21T17:59:04.891Z,101350.13
2023-01-21T18:01:31.643Z,101350.44
2023-01-21T18:03:58.333Z,101359.44
2023-01-21T18:06:27.557Z,101354.44
2023-01-21T18:08:56.442Z,101350.94
2023-01-21T18:11:23.324Z,101362.16
2023-01-21T18:13:50.276Z,101356.88
2023-01-21T18:16:17.095Z,101372.53
2023-01-21T18:18:44.058Z,101379.91
2023-01-21T18:21:17.697Z,101378.53
2023-01-21T18:23:44.427Z,101382.13
2023-01-21T18:26:17.009Z,101386.63
2023-01-21T18:28:43.699Z,101397.00
2023-01-21T18:31:10.834Z,101393.75
2023-01-21T18:33:37.611Z,101390.06
2023-01-21T18:36:04.357Z,101387.53
2023-01-21T18:38:33.641Z,101390.69
2023-01-21T18:41:00.314Z,101386.94
2023-01-21T18:43:27.055Z,101389.66
2023-01-21T18:45:54.602Z,101384.38
2023-01-21T18:48:22.991Z,101391.22
2023-01-21T18:50:49.661Z,101392.63
2023-01-21T18:53:16.327Z,101398.13
2023-01-21T18:55:44.334Z,101391.31
2023-01-21T18:58:16.665Z,101383.78
2023-01-21T19:00:43.415Z,101395.13
2023-01-21T19:03:12.741Z,101398.88
2023-01-21T19:05:40.498Z,101383.16
2023-01-21T19:08:17.201Z,101393.03
2023-01-21T19:10:44.056Z,101392.47
2023-01-21T19:13:11.661Z,101407.09
2023-01-21T19:15:38.639Z,101408.09
2023-01-21T19:18:15.623Z,101414.75
2023-01-21T19:20:42.784Z,101402.22
2023-01-21T19:23:16.972Z,101410.44
2023-01-21T19:25:50.428Z,101408.63
2023-01-21T19:28:17.105Z,101410.88
2023-01-21T19:30:45.262Z,101421.47
2023-01-21T19:33:12.437Z,101420.31
2023-01-21T19:35:41.869Z,101420.75
2023-01-21T19:38:23.755Z,101426.47
2023-01-21T19:40:50.728Z,101432.72
2023-01-21T19:43:18.253Z,101425.91
2023-01-21T19:45:44.908Z,101425.06
2023-01-21T19:48:12.730Z,101437.72
2023-01-21T19:50:39.508Z,101433.84
2023-01-21T19:53:06.206Z,101433.16
2023-01-21T19:55:34.230Z,101431.63
2023-01-21T19:58:01.903Z,101430.09
2023-01-21T20:00:29.867Z,101430.78
2023-01-21T20:02:56.512Z,101433.56
2023-01-21T20:05:23.902Z,101428.28
2023-01-21T20:07:50.897Z,101432.31
2023-01-21T20:10:22.125Z,101440.25
2023-01-21T20:12:49.587Z,101439.28
2023-01-21T20:15:17.547Z,101445.53
2023-01-21T20:17:46.702Z,101442.16
2023-01-21T20:20:17.604Z,101443.50
2023-01-21T20:22:44.431Z,101442.22
2023-01-21T20:25:15.643Z,101436.69
2023-01-21T20:27:44.152Z,101442.59
2023-01-21T20:30:16.479Z,101440.06
2023-01-21T20:32:43.459Z,101440.94
2023-01-21T20:35:10.539Z,101436.03
2023-01-21T20:37:37.273Z,101436.03
2023-01-21T20:40:04.074Z,101442.09
2023-01-21T20:44:58.234Z,101446.38
2023-01-21T20:47:37.738Z,101440.66
2023-01-21T20:50:40.620Z,101440.31
2023-01-21T20:53:07.291Z,101439.13
2023-01-21T20:55:33.915Z,101436.06
2023-01-21T20:58:00.644Z,101435.94
2023-01-21T21:00:30.619Z,101445.41
2023-01-21T21:03:00.283Z,101442.25
2023-01-21T21:05:27.815Z,101447.09
2023-01-21T21:07:54.711Z,101452.88
2023-01-21T21:10:36.709Z,101449.94
2023-01-21T21:13:03.794Z,101452.00
2023-01-21T21:15:31.227Z,101455.16
2023-01-21T21:17:58.413Z,101463.63
2023-01-21T21:20:26.680Z,101465.94
2023-01-21T21:22:53.849Z,101467.44
2023-01-21T21:25:22.248Z,101463.50
2023-01-21T21:27:50.682Z,101467.38
2023-01-21T21:30:25.276Z,101467.81
2023-01-21T21:32:51.896Z,101468.59
2023-01-21T21:35:44.890Z,101469.97
2023-01-21T21:38:14.281Z,101476.59
2023-01-21T21:40:40.964Z,101481.88
2023-01-21T21:43:26.021Z,101472.63
2023-01-21T21:46:11.426Z,101486.88
2023-01-21T21:48:38.146Z,101479.94
2023-01-21T21:51:09.212Z,101484.34
2023-01-21T21:53:36.640Z,101482.53
2023-01-21T21:56:07.447Z,101478.22
2023-01-21T21:58:34.529Z,101477.78
2023-01-21T22:01:29.484Z,101475.88
2023-01-21T22:04:00.166Z,101487.53
2023-01-21T22:06:26.931Z,101498.91
2023-01-21T22:08:54.450Z,101499.38
2023-01-21T22:11:22.326Z,101506.06
2023-01-21T22:13:50.469Z,101503.56
2023-01-21T22:16:24.958Z,101512.34
2023-01-21T22:18:52.056Z,101510.72
2023-01-21T22:21:20.374Z,101514.00
2023-01-21T22:23:47.472Z,101512.69
2023-01-21T22:26:15.490Z,101511.03
2023-01-21T22:28:43.011Z,101515.41
2023-01-21T22:31:11.247Z,101513.47
2023-01-21T22:33:38.250Z,101519.47
2023-01-21T22:36:05.583Z,101520.22
2023-01-21T22:38:32.944Z,101526.44
2023-01-21T22:40:59.747Z,101523.66
2023-01-21T22:43:26.989Z,101526.81
2023-01-21T22:45:54.889Z,101531.31
2023-01-21T22:48:22.136Z,101537.25
2023-01-21T22:50:55.667Z,101538.03
2023-01-21T22:53:23.037Z,101534.22
2023-01-21T22:55:56.712Z,101542.13
2023-01-21T22:58:24.321Z,101550.31
2023-01-21T23:00:51.562Z,101551.94
2023-01-21T23:03:18.827Z,101548.06
2023-01-21T23:05:45.499Z,101543.19
2023-01-21T23:08:12.662Z,101539.75
2023-01-21T23:10:42.500Z,101546.56
2023-01-21T23:13:09.520Z,101543.78
2023-01-21T23:15:36.141Z,101537.69
2023-01-21T23:18:02.896Z,101541.81
2023-01-21T23:20:32.413Z,101543.94
2023-01-21T23:22:59.180Z,101542.00
2023-01-21T23:25:25.851Z,101546.69
2023-01-21T23:27:52.591Z,101546.00
2023-01-21T23:30:19.481Z,101539.63
2023-01-21T23:32:46.393Z,101554.47
2023-01-21T23:35:13.100Z,101550.41
2023-01-21T23:37:39.729Z,101540.19
2023-01-21T23:40:06.752Z,101543.69
2023-01-21T23:42:33.380Z,101546.63
2023-01-21T23:44:59.966Z,101548.31
2023-01-21T23:47:26.594Z,101552.75
2023-01-21T23:49:53.266Z,101549.41
2023-01-21T23:52:19.931Z,101554.53
2023-01-21T23:54:46.540Z,101557.72
2023-01-21T23:57:13.292Z,101557.13
2023-01-21T23:59:39.914Z,101553.50
